sensor_id;sensor_type;location;lat;lon;timestamp;P1;durP1;ratioP1;P2;durP2;ratioP2
5129;SDS011;2583;50.946;6.954;2023-08-06T00:01:28;2.50;;;2.40;;
5129;SDS011;2583;50.946;6.954;2023-08-06T00:03:54;4.67;;;2.73;;
5129;SDS011;2583;50.946;6.954;2023-08-06T00:06:21;3.70;;;2.90;;
5129;SDS011;2583;50.946;6.954;2023-08-06T00:08:48;5.23;;;3.00;;
5129;SDS011;2583;50.946;6.954;2023-08-06T00:11:15;3.50;;;3.20;;
5129;SDS011;2583;50.946;6.954;2023-08-06T00:13:42;3.40;;;3.20;;
5129;SDS011;2583;50.946;6.954;2023-08-06T00:16:09;5.13;;;3.33;;
5129;SDS011;2583;50.946;6.954;2023-08-06T00:18:36;4.77;;;3.00;;
5129;SDS011;2583;50.946;6.954;2023-08-06T00:21:04;3.40;;;3.20;;
5129;SDS011;2583;50.946;6.954;2023-08-06T00:23:31;3.73;;;2.80;;
5129;SDS011;2583;50.946;6.954;2023-08-06T00:25:57;2.90;;;2.70;;
5129;SDS011;2583;50.946;6.954;2023-08-06T00:28:24;3.40;;;3.10;;
5129;SDS011;2583;50.946;6.954;2023-08-06T00:30:54;3.57;;;3.30;;
5129;SDS011;2583;50.946;6.954;2023-08-06T00:33:22;3.60;;;2.90;;
5129;SDS011;2583;50.946;6.954;2023-08-06T00:35:49;3.13;;;2.90;;
5129;SDS011;2583;50.946;6.954;2023-08-06T00:38:16;4.67;;;3.20;;
5129;SDS011;2583;50.946;6.954;2023-08-06T00:40:43;3.50;;;3.20;;
5129;SDS011;2583;50.946;6.954;2023-08-06T00:43:10;4.63;;;4.23;;
5129;SDS011;2583;50.946;6.954;2023-08-06T00:45:37;8.10;;;3.73;;
5129;SDS011;2583;50.946;6.954;2023-08-06T00:48:04;4.90;;;3.60;;
5129;SDS011;2583;50.946;6.954;2023-08-06T00:50:32;4.10;;;3.80;;
5129;SDS011;2583;50.946;6.954;2023-08-06T00:52:59;3.90;;;3.60;;
5129;SDS011;2583;50.946;6.954;2023-08-06T00:55:27;3.63;;;3.33;;
5129;SDS011;2583;50.946;6.954;2023-08-06T00:57:54;3.40;;;3.10;;
5129;SDS011;2583;50.946;6.954;2023-08-06T01:00:22;5.03;;;3.70;;
5129;SDS011;2583;50.946;6.954;2023-08-06T01:02:51;3.60;;;2.80;;
5129;SDS011;2583;50.946;6.954;2023-08-06T01:05:20;3.47;;;3.17;;
5129;SDS011;2583;50.946;6.954;2023-08-06T01:08:02;3.20;;;3.00;;
5129;SDS011;2583;50.946;6.954;2023-08-06T01:11:04;3.57;;;3.27;;
5129;SDS011;2583;50.946;6.954;2023-08-06T01:13:42;3.57;;;3.37;;
5129;SDS011;2583;50.946;6.954;2023-08-06T01:16:16;2.90;;;2.70;;
5129;SDS011;2583;50.946;6.954;2023-08-06T01:18:46;5.23;;;3.80;;
5129;SDS011;2583;50.946;6.954;2023-08-06T01:21:15;3.97;;;3.27;;
5129;SDS011;2583;50.946;6.954;2023-08-06T01:23:43;3.50;;;3.20;;
5129;SDS011;2583;50.946;6.954;2023-08-06T01:28:51;4.63;;;2.90;;
5129;SDS011;2583;50.946;6.954;2023-08-06T01:31:37;4.20;;;3.13;;
5129;SDS011;2583;50.946;6.954;2023-08-06T01:34:05;3.13;;;2.80;;
5129;SDS011;2583;50.946;6.954;2023-08-06T01:36:35;3.80;;;3.10;;
5129;SDS011;2583;50.946;6.954;2023-08-06T01:39:02;7.17;;;3.20;;
5129;SDS011;2583;50.946;6.954;2023-08-06T01:41:31;3.43;;;3.13;;
5129;SDS011;2583;50.946;6.954;2023-08-06T01:43:57;2.83;;;2.50;;
5129;SDS011;2583;50.946;6.954;2023-08-06T01:46:24;3.53;;;3.23;;
5129;SDS011;2583;50.946;6.954;2023-08-06T01:48:51;3.93;;;3.63;;
5129;SDS011;2583;50.946;6.954;2023-08-06T01:51:18;4.03;;;3.33;;
5129;SDS011;2583;50.946;6.954;2023-08-06T01:53:44;3.47;;;3.13;;
5129;SDS011;2583;50.946;6.954;2023-08-06T01:56:11;4.23;;;3.47;;
5129;SDS011;2583;50.946;6.954;2023-08-06T01:58:38;4.37;;;3.70;;
5129;SDS011;2583;50.946;6.954;2023-08-06T02:01:05;3.47;;;3.27;;
5129;SDS011;2583;50.946;6.954;2023-08-06T02:03:32;3.73;;;3.43;;
5129;SDS011;2583;50.946;6.954;2023-08-06T02:05:58;3.50;;;3.30;;
5129;SDS011;2583;50.946;6.954;2023-08-06T02:08:26;6.20;;;3.60;;
5129;SDS011;2583;50.946;6.954;2023-08-06T02:10:53;3.73;;;3.43;;
5129;SDS011;2583;50.946;6.954;2023-08-06T02:13:20;5.60;;;3.50;;
5129;SDS011;2583;50.946;6.954;2023-08-06T02:15:47;4.03;;;3.73;;
5129;SDS011;2583;50.946;6.954;2023-08-06T02:18:14;3.60;;;3.30;;
5129;SDS011;2583;50.946;6.954;2023-08-06T02:20:41;4.40;;;4.10;;
5129;SDS011;2583;50.946;6.954;2023-08-06T02:23:09;4.07;;;3.67;;
5129;SDS011;2583;50.946;6.954;2023-08-06T02:25:35;3.67;;;3.47;;
5129;SDS011;2583;50.946;6.954;2023-08-06T02:28:02;3.30;;;3.00;;
5129;SDS011;2583;50.946;6.954;2023-08-06T02:30:29;4.03;;;3.60;;
5129;SDS011;2583;50.946;6.954;2023-08-06T02:32:56;6.10;;;3.40;;
5129;SDS011;2583;50.946;6.954;2023-08-06T02:35:23;5.07;;;3.03;;
5129;SDS011;2583;50.946;6.954;2023-08-06T02:37:50;5.87;;;3.20;;
5129;SDS011;2583;50.946;6.954;2023-08-06T02:40:17;3.03;;;2.83;;
5129;SDS011;2583;50.946;6.954;2023-08-06T02:42:43;3.70;;;3.40;;
5129;SDS011;2583;50.946;6.954;2023-08-06T02:45:10;3.67;;;3.37;;
5129;SDS011;2583;50.946;6.954;2023-08-06T02:47:37;3.50;;;3.20;;
5129;SDS011;2583;50.946;6.954;2023-08-06T02:50:04;3.20;;;2.90;;
5129;SDS011;2583;50.946;6.954;2023-08-06T02:52:31;3.07;;;2.87;;
5129;SDS011;2583;50.946;6.954;2023-08-06T02:54:57;4.10;;;3.43;;
5129;SDS011;2583;50.946;6.954;2023-08-06T02:57:26;4.33;;;3.27;;
5129;SDS011;2583;50.946;6.954;2023-08-06T02:59:53;2.83;;;2.63;;
5129;SDS011;2583;50.946;6.954;2023-08-06T03:02:20;3.00;;;2.80;;
5129;SDS011;2583;50.946;6.954;2023-08-06T03:04:46;3.50;;;3.20;;
5129;SDS011;2583;50.946;6.954;2023-08-06T03:07:13;3.33;;;2.90;;
5129;SDS011;2583;50.946;6.954;2023-08-06T03:09:40;4.87;;;3.13;;
5129;SDS011;2583;50.946;6.954;2023-08-06T03:12:07;5.03;;;3.17;;
5129;SDS011;2583;50.946;6.954;2023-08-06T03:14:34;3.83;;;3.00;;
5129;SDS011;2583;50.946;6.954;2023-08-06T03:17:00;5.37;;;3.20;;
5129;SDS011;2583;50.946;6.954;2023-08-06T03:19:27;3.90;;;2.60;;
5129;SDS011;2583;50.946;6.954;2023-08-06T03:21:54;3.43;;;3.13;;
5129;SDS011;2583;50.946;6.954;2023-08-06T03:24:21;2.90;;;2.60;;
5129;SDS011;2583;50.946;6.954;2023-08-06T03:26:47;2.57;;;2.37;;
5129;SDS011;2583;50.946;6.954;2023-08-06T03:29:14;2.83;;;2.63;;
5129;SDS011;2583;50.946;6.954;2023-08-06T03:31:41;3.40;;;2.70;;
5129;SDS011;2583;50.946;6.954;2023-08-06T03:34:08;4.23;;;3.00;;
5129;SDS011;2583;50.946;6.954;2023-08-06T03:36:34;2.70;;;2.47;;
5129;SDS011;2583;50.946;6.954;2023-08-06T03:39:01;4.83;;;3.10;;
5129;SDS011;2583;50.946;6.954;2023-08-06T03:41:28;4.53;;;3.47;;
5129;SDS011;2583;50.946;6.954;2023-08-06T03:43:55;4.90;;;3.07;;
5129;SDS011;2583;50.946;6.954;2023-08-06T03:46:21;3.73;;;3.33;;
5129;SDS011;2583;50.946;6.954;2023-08-06T03:48:48;3.20;;;2.70;;
5129;SDS011;2583;50.946;6.954;2023-08-06T03:51:15;4.40;;;3.00;;
5129;SDS011;2583;50.946;6.954;2023-08-06T03:53:42;3.47;;;3.17;;
5129;SDS011;2583;50.946;6.954;2023-08-06T03:56:08;4.00;;;3.60;;
5129;SDS011;2583;50.946;6.954;2023-08-06T03:58:35;4.27;;;3.93;;
5129;SDS011;2583;50.946;6.954;2023-08-06T04:01:02;4.23;;;3.47;;
5129;SDS011;2583;50.946;6.954;2023-08-06T04:03:30;3.53;;;3.23;;
5129;SDS011;2583;50.946;6.954;2023-08-06T04:05:57;4.13;;;3.30;;
5129;SDS011;2583;50.946;6.954;2023-08-06T04:08:23;3.73;;;3.43;;
5129;SDS011;2583;50.946;6.954;2023-08-06T04:10:53;2.80;;;2.60;;
5129;SDS011;2583;50.946;6.954;2023-08-06T04:13:20;3.70;;;3.13;;
5129;SDS011;2583;50.946;6.954;2023-08-06T04:15:47;9.20;;;3.57;;
5129;SDS011;2583;50.946;6.954;2023-08-06T04:18:14;4.97;;;3.60;;
5129;SDS011;2583;50.946;6.954;2023-08-06T04:20:47;3.60;;;3.30;;
5129;SDS011;2583;50.946;6.954;2023-08-06T04:23:15;2.90;;;2.70;;
5129;SDS011;2583;50.946;6.954;2023-08-06T04:25:42;4.83;;;2.93;;
5129;SDS011;2583;50.946;6.954;2023-08-06T04:28:09;2.77;;;2.57;;
5129;SDS011;2583;50.946;6.954;2023-08-06T04:30:36;5.50;;;3.93;;
5129;SDS011;2583;50.946;6.954;2023-08-06T04:33:03;4.43;;;2.93;;
5129;SDS011;2583;50.946;6.954;2023-08-06T04:35:30;4.20;;;3.40;;
5129;SDS011;2583;50.946;6.954;2023-08-06T04:37:57;3.93;;;3.30;;
5129;SDS011;2583;50.946;6.954;2023-08-06T04:40:24;3.70;;;2.93;;
5129;SDS011;2583;50.946;6.954;2023-08-06T04:42:50;4.90;;;2.90;;
5129;SDS011;2583;50.946;6.954;2023-08-06T04:45:17;6.23;;;3.70;;
5129;SDS011;2583;50.946;6.954;2023-08-06T04:47:44;5.30;;;3.80;;
5129;SDS011;2583;50.946;6.954;2023-08-06T04:50:11;8.83;;;3.07;;
5129;SDS011;2583;50.946;6.954;2023-08-06T04:52:38;5.23;;;3.70;;
5129;SDS011;2583;50.946;6.954;2023-08-06T04:55:04;3.20;;;3.00;;
5129;SDS011;2583;50.946;6.954;2023-08-06T04:57:32;10.00;;;4.40;;
5129;SDS011;2583;50.946;6.954;2023-08-06T04:59:59;4.47;;;4.07;;
5129;SDS011;2583;50.946;6.954;2023-08-06T05:02:26;3.50;;;3.20;;
5129;SDS011;2583;50.946;6.954;2023-08-06T05:04:53;3.40;;;3.10;;
5129;SDS011;2583;50.946;6.954;2023-08-06T05:07:19;3.87;;;3.57;;
5129;SDS011;2583;50.946;6.954;2023-08-06T05:09:46;3.90;;;3.60;;
5129;SDS011;2583;50.946;6.954;2023-08-06T05:12:13;3.47;;;3.27;;
5129;SDS011;2583;50.946;6.954;2023-08-06T05:14:40;4.10;;;3.37;;
5129;SDS011;2583;50.946;6.954;2023-08-06T05:17:07;6.80;;;3.33;;
5129;SDS011;2583;50.946;6.954;2023-08-06T05:19:34;4.07;;;3.67;;
5129;SDS011;2583;50.946;6.954;2023-08-06T05:22:01;3.40;;;3.10;;
5129;SDS011;2583;50.946;6.954;2023-08-06T05:24:28;3.40;;;3.20;;
5129;SDS011;2583;50.946;6.954;2023-08-06T05:26:55;2.97;;;2.77;;
5129;SDS011;2583;50.946;6.954;2023-08-06T05:29:22;4.20;;;3.23;;
5129;SDS011;2583;50.946;6.954;2023-08-06T05:31:48;6.43;;;3.17;;
5129;SDS011;2583;50.946;6.954;2023-08-06T05:34:15;5.13;;;3.10;;
5129;SDS011;2583;50.946;6.954;2023-08-06T05:36:42;3.80;;;3.50;;
5129;SDS011;2583;50.946;6.954;2023-08-06T05:39:09;3.23;;;2.77;;
5129;SDS011;2583;50.946;6.954;2023-08-06T05:41:36;2.70;;;2.50;;
5129;SDS011;2583;50.946;6.954;2023-08-06T05:44:02;9.50;;;3.43;;
5129;SDS011;2583;50.946;6.954;2023-08-06T05:46:29;3.70;;;2.70;;
5129;SDS011;2583;50.946;6.954;2023-08-06T05:48:56;4.10;;;3.80;;
5129;SDS011;2583;50.946;6.954;2023-08-06T05:51:23;4.73;;;2.90;;
5129;SDS011;2583;50.946;6.954;2023-08-06T05:53:50;4.23;;;2.97;;
5129;SDS011;2583;50.946;6.954;2023-08-06T05:56:16;3.77;;;2.83;;
5129;SDS011;2583;50.946;6.954;2023-08-06T05:58:43;8.97;;;3.10;;
5129;SDS011;2583;50.946;6.954;2023-08-06T06:01:10;4.07;;;3.70;;
5129;SDS011;2583;50.946;6.954;2023-08-06T06:03:37;3.57;;;3.23;;
5129;SDS011;2583;50.946;6.954;2023-08-06T06:06:03;4.73;;;3.00;;
5129;SDS011;2583;50.946;6.954;2023-08-06T06:08:30;5.30;;;3.60;;
5129;SDS011;2583;50.946;6.954;2023-08-06T06:10:57;4.40;;;3.47;;
5129;SDS011;2583;50.946;6.954;2023-08-06T06:13:24;4.00;;;3.33;;
5129;SDS011;2583;50.946;6.954;2023-08-06T06:15:53;3.17;;;2.97;;
5129;SDS011;2583;50.946;6.954;2023-08-06T06:18:22;4.03;;;3.73;;
5129;SDS011;2583;50.946;6.954;2023-08-06T06:20:49;7.50;;;3.27;;
5129;SDS011;2583;50.946;6.954;2023-08-06T06:23:15;4.33;;;3.27;;
5129;SDS011;2583;50.946;6.954;2023-08-06T06:25:43;4.33;;;3.93;;
5129;SDS011;2583;50.946;6.954;2023-08-06T06:28:10;3.53;;;2.80;;
5129;SDS011;2583;50.946;6.954;2023-08-06T06:30:37;7.07;;;2.60;;
5129;SDS011;2583;50.946;6.954;2023-08-06T06:33:04;3.40;;;3.10;;
5129;SDS011;2583;50.946;6.954;2023-08-06T06:35:31;2.50;;;2.30;;
5129;SDS011;2583;50.946;6.954;2023-08-06T06:38:00;3.30;;;2.47;;
5129;SDS011;2583;50.946;6.954;2023-08-06T06:40:26;3.40;;;2.67;;
5129;SDS011;2583;50.946;6.954;2023-08-06T06:42:53;7.30;;;2.00;;
5129;SDS011;2583;50.946;6.954;2023-08-06T06:45:20;1.90;;;1.80;;
5129;SDS011;2583;50.946;6.954;2023-08-06T06:47:47;2.40;;;1.30;;
5129;SDS011;2583;50.946;6.954;2023-08-06T06:50:14;2.27;;;2.07;;
5129;SDS011;2583;50.946;6.954;2023-08-06T06:52:41;1.40;;;1.27;;
5129;SDS011;2583;50.946;6.954;2023-08-06T06:55:07;2.43;;;1.00;;
5129;SDS011;2583;50.946;6.954;2023-08-06T06:57:34;1.60;;;1.20;;
5129;SDS011;2583;50.946;6.954;2023-08-06T07:00:01;1.60;;;1.50;;
5129;SDS011;2583;50.946;6.954;2023-08-06T07:02:31;1.60;;;1.50;;
5129;SDS011;2583;50.946;6.954;2023-08-06T07:04:58;1.30;;;0.80;;
5129;SDS011;2583;50.946;6.954;2023-08-06T07:07:25;2.03;;;1.93;;
5129;SDS011;2583;50.946;6.954;2023-08-06T07:09:52;1.30;;;0.90;;
5129;SDS011;2583;50.946;6.954;2023-08-06T07:12:19;2.50;;;1.10;;
5129;SDS011;2583;50.946;6.954;2023-08-06T07:14:47;1.30;;;1.20;;
5129;SDS011;2583;50.946;6.954;2023-08-06T07:17:14;1.93;;;1.20;;
5129;SDS011;2583;50.946;6.954;2023-08-06T07:19:41;1.70;;;1.40;;
5129;SDS011;2583;50.946;6.954;2023-08-06T07:22:07;1.97;;;1.20;;
5129;SDS011;2583;50.946;6.954;2023-08-06T07:24:34;1.30;;;1.10;;
5129;SDS011;2583;50.946;6.954;2023-08-06T07:27:01;1.80;;;0.93;;
5129;SDS011;2583;50.946;6.954;2023-08-06T07:29:27;1.30;;;1.00;;
5129;SDS011;2583;50.946;6.954;2023-08-06T07:31:54;2.27;;;1.00;;
5129;SDS011;2583;50.946;6.954;2023-08-06T07:34:21;1.90;;;1.00;;
5129;SDS011;2583;50.946;6.954;2023-08-06T07:36:48;1.97;;;1.50;;
5129;SDS011;2583;50.946;6.954;2023-08-06T07:39:16;1.50;;;1.20;;
5129;SDS011;2583;50.946;6.954;2023-08-06T07:41:43;1.70;;;0.90;;
5129;SDS011;2583;50.946;6.954;2023-08-06T07:44:11;1.43;;;1.33;;
5129;SDS011;2583;50.946;6.954;2023-08-06T07:46:38;1.70;;;1.00;;
5129;SDS011;2583;50.946;6.954;2023-08-06T07:49:05;1.77;;;1.43;;
5129;SDS011;2583;50.946;6.954;2023-08-06T07:51:32;1.27;;;0.80;;
5129;SDS011;2583;50.946;6.954;2023-08-06T07:53:59;2.33;;;1.50;;
5129;SDS011;2583;50.946;6.954;2023-08-06T07:56:25;1.90;;;1.30;;
5129;SDS011;2583;50.946;6.954;2023-08-06T07:58:52;2.40;;;1.00;;
5129;SDS011;2583;50.946;6.954;2023-08-06T08:01:19;1.30;;;0.87;;
5129;SDS011;2583;50.946;6.954;2023-08-06T08:03:46;1.70;;;0.83;;
5129;SDS011;2583;50.946;6.954;2023-08-06T08:06:13;1.20;;;0.90;;
5129;SDS011;2583;50.946;6.954;2023-08-06T08:08:39;1.47;;;1.07;;
5129;SDS011;2583;50.946;6.954;2023-08-06T08:11:06;1.10;;;0.80;;
5129;SDS011;2583;50.946;6.954;2023-08-06T08:13:33;2.43;;;1.00;;
5129;SDS011;2583;50.946;6.954;2023-08-06T08:16:00;2.20;;;0.90;;
5129;SDS011;2583;50.946;6.954;2023-08-06T08:18:28;2.00;;;0.90;;
5129;SDS011;2583;50.946;6.954;2023-08-06T08:20:55;1.83;;;1.00;;
5129;SDS011;2583;50.946;6.954;2023-08-06T08:23:22;1.73;;;1.40;;
5129;SDS011;2583;50.946;6.954;2023-08-06T08:25:49;1.63;;;1.20;;
5129;SDS011;2583;50.946;6.954;2023-08-06T08:28:16;3.03;;;0.90;;
5129;SDS011;2583;50.946;6.954;2023-08-06T08:30:43;1.57;;;0.90;;
5129;SDS011;2583;50.946;6.954;2023-08-06T08:33:09;2.37;;;1.30;;
5129;SDS011;2583;50.946;6.954;2023-08-06T08:35:36;1.00;;;0.70;;
5129;SDS011;2583;50.946;6.954;2023-08-06T08:38:03;1.40;;;1.10;;
5129;SDS011;2583;50.946;6.954;2023-08-06T08:40:32;1.20;;;0.80;;
5129;SDS011;2583;50.946;6.954;2023-08-06T08:43:03;1.63;;;1.10;;
5129;SDS011;2583;50.946;6.954;2023-08-06T08:45:31;1.30;;;1.20;;
5129;SDS011;2583;50.946;6.954;2023-08-06T08:48:01;1.60;;;1.23;;
5129;SDS011;2583;50.946;6.954;2023-08-06T08:50:28;1.10;;;0.80;;
5129;SDS011;2583;50.946;6.954;2023-08-06T08:52:55;1.10;;;0.73;;
5129;SDS011;2583;50.946;6.954;2023-08-06T08:55:22;1.07;;;0.63;;
5129;SDS011;2583;50.946;6.954;2023-08-06T08:57:50;1.10;;;0.70;;
5129;SDS011;2583;50.946;6.954;2023-08-06T09:00:16;1.50;;;0.80;;
5129;SDS011;2583;50.946;6.954;2023-08-06T09:02:44;3.80;;;0.90;;
5129;SDS011;2583;50.946;6.954;2023-08-06T09:05:12;1.20;;;0.93;;
5129;SDS011;2583;50.946;6.954;2023-08-06T09:07:42;1.10;;;0.83;;
5129;SDS011;2583;50.946;6.954;2023-08-06T09:10:16;1.00;;;0.77;;
5129;SDS011;2583;50.946;6.954;2023-08-06T09:12:47;1.00;;;0.80;;
5129;SDS011;2583;50.946;6.954;2023-08-06T09:15:17;1.30;;;1.10;;
5129;SDS011;2583;50.946;6.954;2023-08-06T09:17:44;1.20;;;1.00;;
5129;SDS011;2583;50.946;6.954;2023-08-06T09:20:13;1.10;;;0.80;;
5129;SDS011;2583;50.946;6.954;2023-08-06T09:22:41;1.30;;;1.17;;
5129;SDS011;2583;50.946;6.954;2023-08-06T09:25:08;1.30;;;1.10;;
5129;SDS011;2583;50.946;6.954;2023-08-06T09:27:39;1.87;;;1.77;;
5129;SDS011;2583;50.946;6.954;2023-08-06T09:30:06;2.10;;;1.90;;
5129;SDS011;2583;50.946;6.954;2023-08-06T09:32:46;2.50;;;2.40;;
5129;SDS011;2583;50.946;6.954;2023-08-06T09:35:17;2.40;;;2.30;;
5129;SDS011;2583;50.946;6.954;2023-08-06T09:37:45;2.70;;;2.50;;
5129;SDS011;2583;50.946;6.954;2023-08-06T09:42:51;2.77;;;2.67;;
5129;SDS011;2583;50.946;6.954;2023-08-06T09:45:18;3.60;;;3.40;;
5129;SDS011;2583;50.946;6.954;2023-08-06T09:47:45;2.83;;;2.63;;
5129;SDS011;2583;50.946;6.954;2023-08-06T09:50:16;3.40;;;3.20;;
5129;SDS011;2583;50.946;6.954;2023-08-06T09:52:44;3.33;;;3.13;;
5129;SDS011;2583;50.946;6.954;2023-08-06T09:55:12;3.73;;;3.43;;
5129;SDS011;2583;50.946;6.954;2023-08-06T09:57:42;3.77;;;3.57;;
5129;SDS011;2583;50.946;6.954;2023-08-06T10:00:10;3.80;;;3.50;;
5129;SDS011;2583;50.946;6.954;2023-08-06T10:02:38;4.60;;;4.30;;
5129;SDS011;2583;50.946;6.954;2023-08-06T10:05:08;3.77;;;3.57;;
5129;SDS011;2583;50.946;6.954;2023-08-06T10:07:35;3.90;;;3.70;;
5129;SDS011;2583;50.946;6.954;2023-08-06T10:10:05;3.27;;;2.97;;
5129;SDS011;2583;50.946;6.954;2023-08-06T10:12:34;3.40;;;1.60;;
5129;SDS011;2583;50.946;6.954;2023-08-06T10:15:09;2.60;;;1.90;;
5129;SDS011;2583;50.946;6.954;2023-08-06T10:17:39;1.93;;;1.23;;
5129;SDS011;2583;50.946;6.954;2023-08-06T10:20:16;3.23;;;1.30;;
5129;SDS011;2583;50.946;6.954;2023-08-06T10:22:44;1.80;;;0.83;;
5129;SDS011;2583;50.946;6.954;2023-08-06T10:25:15;1.10;;;0.67;;
5129;SDS011;2583;50.946;6.954;2023-08-06T10:32:59;1.07;;;0.70;;
5129;SDS011;2583;50.946;6.954;2023-08-06T10:35:43;0.90;;;0.60;;
5129;SDS011;2583;50.946;6.954;2023-08-06T10:38:18;0.90;;;0.60;;
5129;SDS011;2583;50.946;6.954;2023-08-06T10:41:01;1.00;;;0.70;;
5129;SDS011;2583;50.946;6.954;2023-08-06T10:46:01;1.00;;;0.70;;
5129;SDS011;2583;50.946;6.954;2023-08-06T10:48:34;1.93;;;0.80;;
5129;SDS011;2583;50.946;6.954;2023-08-06T10:51:03;1.80;;;1.20;;
5129;SDS011;2583;50.946;6.954;2023-08-06T10:53:31;2.37;;;1.23;;
5129;SDS011;2583;50.946;6.954;2023-08-06T10:56:00;1.70;;;1.23;;
5129;SDS011;2583;50.946;6.954;2023-08-06T10:58:34;2.20;;;1.50;;
5129;SDS011;2583;50.946;6.954;2023-08-06T11:01:00;1.93;;;1.83;;
5129;SDS011;2583;50.946;6.954;2023-08-06T11:03:28;2.63;;;1.60;;
5129;SDS011;2583;50.946;6.954;2023-08-06T11:05:55;1.90;;;1.70;;
5129;SDS011;2583;50.946;6.954;2023-08-06T11:08:26;5.20;;;1.83;;
5129;SDS011;2583;50.946;6.954;2023-08-06T11:10:54;2.20;;;2.00;;
5129;SDS011;2583;50.946;6.954;2023-08-06T11:13:29;2.50;;;2.10;;
5129;SDS011;2583;50.946;6.954;2023-08-06T11:15:57;2.20;;;1.80;;
5129;SDS011;2583;50.946;6.954;2023-08-06T11:18:24;2.50;;;1.83;;
5129;SDS011;2583;50.946;6.954;2023-08-06T11:20:51;2.80;;;2.10;;
5129;SDS011;2583;50.946;6.954;2023-08-06T11:23:18;3.83;;;1.83;;
5129;SDS011;2583;50.946;6.954;2023-08-06T11:25:45;2.67;;;1.90;;
5129;SDS011;2583;50.946;6.954;2023-08-06T11:28:12;3.60;;;2.50;;
5129;SDS011;2583;50.946;6.954;2023-08-06T11:30:39;2.10;;;1.60;;
5129;SDS011;2583;50.946;6.954;2023-08-06T11:33:06;3.53;;;1.73;;
5129;SDS011;2583;50.946;6.954;2023-08-06T11:35:35;2.27;;;2.07;;
5129;SDS011;2583;50.946;6.954;2023-08-06T11:38:03;2.50;;;1.90;;
5129;SDS011;2583;50.946;6.954;2023-08-06T11:40:31;2.60;;;1.80;;
5129;SDS011;2583;50.946;6.954;2023-08-06T11:42:58;2.93;;;1.90;;
5129;SDS011;2583;50.946;6.954;2023-08-06T11:45:25;7.07;;;2.10;;
5129;SDS011;2583;50.946;6.954;2023-08-06T11:47:52;4.93;;;2.10;;
5129;SDS011;2583;50.946;6.954;2023-08-06T11:50:23;2.80;;;2.37;;
5129;SDS011;2583;50.946;6.954;2023-08-06T11:52:55;2.50;;;1.87;;
5129;SDS011;2583;50.946;6.954;2023-08-06T11:55:24;1.80;;;1.50;;
5129;SDS011;2583;50.946;6.954;2023-08-06T11:57:52;3.10;;;1.90;;
5129;SDS011;2583;50.946;6.954;2023-08-06T12:00:18;2.77;;;1.40;;
5129;SDS011;2583;50.946;6.954;2023-08-06T12:02:48;3.13;;;1.37;;
5129;SDS011;2583;50.946;6.954;2023-08-06T12:05:17;2.27;;;1.73;;
5129;SDS011;2583;50.946;6.954;2023-08-06T12:07:47;2.33;;;1.33;;
5129;SDS011;2583;50.946;6.954;2023-08-06T12:10:15;3.17;;;1.23;;
5129;SDS011;2583;50.946;6.954;2023-08-06T12:12:43;3.00;;;1.53;;
5129;SDS011;2583;50.946;6.954;2023-08-06T12:15:10;2.53;;;1.27;;
5129;SDS011;2583;50.946;6.954;2023-08-06T12:17:37;1.20;;;1.00;;
5129;SDS011;2583;50.946;6.954;2023-08-06T12:20:05;2.90;;;0.90;;
5129;SDS011;2583;50.946;6.954;2023-08-06T12:22:33;3.40;;;1.43;;
5129;SDS011;2583;50.946;6.954;2023-08-06T12:25:02;1.90;;;1.50;;
5129;SDS011;2583;50.946;6.954;2023-08-06T12:27:30;2.47;;;1.00;;
5129;SDS011;2583;50.946;6.954;2023-08-06T12:29:57;3.00;;;1.03;;
5129;SDS011;2583;50.946;6.954;2023-08-06T12:32:23;1.90;;;1.00;;
5129;SDS011;2583;50.946;6.954;2023-08-06T12:34:50;2.03;;;1.17;;
5129;SDS011;2583;50.946;6.954;2023-08-06T12:37:18;3.73;;;1.10;;
5129;SDS011;2583;50.946;6.954;2023-08-06T12:39:46;2.73;;;1.23;;
5129;SDS011;2583;50.946;6.954;2023-08-06T12:42:13;2.30;;;1.20;;
5129;SDS011;2583;50.946;6.954;2023-08-06T12:44:40;3.53;;;1.20;;
5129;SDS011;2583;50.946;6.954;2023-08-06T12:47:07;2.90;;;1.13;;
5129;SDS011;2583;50.946;6.954;2023-08-06T12:49:34;4.33;;;1.83;;
5129;SDS011;2583;50.946;6.954;2023-08-06T12:52:01;2.60;;;1.60;;
5129;SDS011;2583;50.946;6.954;2023-08-06T12:54:28;1.67;;;1.40;;
5129;SDS011;2583;50.946;6.954;2023-08-06T12:56:55;4.80;;;1.43;;
5129;SDS011;2583;50.946;6.954;2023-08-06T12:59:22;3.13;;;2.13;;
5129;SDS011;2583;50.946;6.954;2023-08-06T13:01:48;2.23;;;1.67;;
5129;SDS011;2583;50.946;6.954;2023-08-06T13:04:16;2.40;;;1.73;;
5129;SDS011;2583;50.946;6.954;2023-08-06T13:06:48;6.93;;;2.00;;
5129;SDS011;2583;50.946;6.954;2023-08-06T13:09:15;3.63;;;1.80;;
5129;SDS011;2583;50.946;6.954;2023-08-06T13:11:42;2.80;;;1.87;;
5129;SDS011;2583;50.946;6.954;2023-08-06T13:14:13;2.80;;;2.30;;
5129;SDS011;2583;50.946;6.954;2023-08-06T13:16:41;1.77;;;1.47;;
5129;SDS011;2583;50.946;6.954;2023-08-06T13:19:09;2.30;;;1.53;;
5129;SDS011;2583;50.946;6.954;2023-08-06T13:24:12;10.00;;;2.10;;
5129;SDS011;2583;50.946;6.954;2023-08-06T13:26:39;2.47;;;2.20;;
5129;SDS011;2583;50.946;6.954;2023-08-06T13:29:06;13.73;;;12.37;;
5129;SDS011;2583;50.946;6.954;2023-08-06T13:31:33;3.10;;;2.70;;
5129;SDS011;2583;50.946;6.954;2023-08-06T13:34:00;3.70;;;2.10;;
5129;SDS011;2583;50.946;6.954;2023-08-06T13:36:27;3.30;;;2.20;;
5129;SDS011;2583;50.946;6.954;2023-08-06T13:38:55;6.37;;;2.33;;
5129;SDS011;2583;50.946;6.954;2023-08-06T13:41:22;7.07;;;2.63;;
5129;SDS011;2583;50.946;6.954;2023-08-06T13:43:49;3.73;;;2.27;;
5129;SDS011;2583;50.946;6.954;2023-08-06T13:46:17;6.33;;;3.33;;
5129;SDS011;2583;50.946;6.954;2023-08-06T13:48:47;8.67;;;2.90;;
5129;SDS011;2583;50.946;6.954;2023-08-06T13:51:17;4.43;;;3.37;;
5129;SDS011;2583;50.946;6.954;2023-08-06T13:53:45;3.90;;;3.50;;
5129;SDS011;2583;50.946;6.954;2023-08-06T13:56:12;4.97;;;3.97;;
5129;SDS011;2583;50.946;6.954;2023-08-06T13:58:41;4.53;;;3.40;;
5129;SDS011;2583;50.946;6.954;2023-08-06T14:01:09;5.07;;;3.47;;
5129;SDS011;2583;50.946;6.954;2023-08-06T14:03:37;3.27;;;2.90;;
5129;SDS011;2583;50.946;6.954;2023-08-06T14:06:04;8.17;;;3.03;;
5129;SDS011;2583;50.946;6.954;2023-08-06T14:08:31;4.30;;;3.90;;
5129;SDS011;2583;50.946;6.954;2023-08-06T14:10:57;4.53;;;4.17;;
5129;SDS011;2583;50.946;6.954;2023-08-06T14:13:25;3.43;;;3.13;;
5129;SDS011;2583;50.946;6.954;2023-08-06T14:15:52;2.93;;;2.63;;
5129;SDS011;2583;50.946;6.954;2023-08-06T14:18:19;3.00;;;2.03;;
5129;SDS011;2583;50.946;6.954;2023-08-06T14:20:45;3.90;;;1.60;;
5129;SDS011;2583;50.946;6.954;2023-08-06T14:23:12;2.83;;;1.40;;
5129;SDS011;2583;50.946;6.954;2023-08-06T14:25:39;2.57;;;1.50;;
5129;SDS011;2583;50.946;6.954;2023-08-06T14:28:06;3.10;;;1.60;;
5129;SDS011;2583;50.946;6.954;2023-08-06T14:30:33;5.10;;;1.40;;
5129;SDS011;2583;50.946;6.954;2023-08-06T14:33:01;5.23;;;1.77;;
5129;SDS011;2583;50.946;6.954;2023-08-06T14:35:46;3.93;;;1.83;;
5129;SDS011;2583;50.946;6.954;2023-08-06T14:38:13;5.50;;;1.70;;
5129;SDS011;2583;50.946;6.954;2023-08-06T14:40:40;3.30;;;1.00;;
5129;SDS011;2583;50.946;6.954;2023-08-06T14:43:07;5.60;;;1.20;;
5129;SDS011;2583;50.946;6.954;2023-08-06T14:45:37;2.17;;;1.10;;
5129;SDS011;2583;50.946;6.954;2023-08-06T14:48:04;2.37;;;1.27;;
5129;SDS011;2583;50.946;6.954;2023-08-06T14:50:32;3.70;;;1.67;;
5129;SDS011;2583;50.946;6.954;2023-08-06T14:52:59;4.93;;;1.53;;
5129;SDS011;2583;50.946;6.954;2023-08-06T14:55:30;5.60;;;1.30;;
5129;SDS011;2583;50.946;6.954;2023-08-06T14:58:00;3.77;;;1.53;;
5129;SDS011;2583;50.946;6.954;2023-08-06T15:00:27;2.07;;;1.23;;
5129;SDS011;2583;50.946;6.954;2023-08-06T15:02:54;2.77;;;1.00;;
5129;SDS011;2583;50.946;6.954;2023-08-06T15:05:21;3.47;;;0.90;;
5129;SDS011;2583;50.946;6.954;2023-08-06T15:07:48;2.83;;;1.10;;
5129;SDS011;2583;50.946;6.954;2023-08-06T15:10:15;1.50;;;0.97;;
5129;SDS011;2583;50.946;6.954;2023-08-06T15:12:45;3.63;;;1.03;;
5129;SDS011;2583;50.946;6.954;2023-08-06T15:15:12;2.70;;;0.80;;
5129;SDS011;2583;50.946;6.954;2023-08-06T15:17:38;1.80;;;0.70;;
5129;SDS011;2583;50.946;6.954;2023-08-06T15:20:05;2.03;;;0.90;;
5129;SDS011;2583;50.946;6.954;2023-08-06T15:22:33;1.77;;;0.90;;
5129;SDS011;2583;50.946;6.954;2023-08-06T15:25:00;2.60;;;1.37;;
5129;SDS011;2583;50.946;6.954;2023-08-06T15:27:28;4.20;;;1.20;;
5129;SDS011;2583;50.946;6.954;2023-08-06T15:29:55;3.53;;;1.23;;
5129;SDS011;2583;50.946;6.954;2023-08-06T15:32:22;3.53;;;0.90;;
5129;SDS011;2583;50.946;6.954;2023-08-06T15:34:49;3.43;;;1.00;;